createdAt,value
2022-11-05T00:00:43.135Z,100598.88
2022-11-05T00:03:29.805Z,100618.28
2022-11-05T00:06:16.972Z,100664.72
2022-11-05T00:09:04.301Z,100656.00
2022-11-05T00:11:47.863Z,100664.63
2022-11-05T00:14:35.164Z,100620.81
2022-11-05T00:17:05.368Z,100662.97
2022-11-05T00:19:34.239Z,100630.94
2022-11-05T00:22:20.959Z,100665.53
2022-11-05T00:25:07.263Z,100655.00
2022-11-05T00:27:36.241Z,100654.16
2022-11-05T00:30:09.638Z,100615.63
2022-11-05T00:32:40.578Z,100660.13
2022-11-05T00:35:09.843Z,100593.38
2022-11-05T00:37:38.930Z,100658.13
2022-11-05T00:40:09.157Z,100657.69
2022-11-05T00:42:55.806Z,100661.03
2022-11-05T00:45:24.597Z,100659.50
2022-11-05T00:48:12.635Z,100653.66
2022-11-05T00:50:41.721Z,100659.59
2022-11-05T00:53:11.127Z,100663.19
2022-11-05T00:55:42.233Z,100660.06
2022-11-05T00:58:12.587Z,100653.38
2022-11-05T01:00:43.767Z,100658.84
2022-11-05T01:03:15.969Z,100637.00
2022-11-05T01:05:46.814Z,100619.91
2022-11-05T01:08:18.088Z,100631.41
2022-11-05T01:10:52.622Z,100661.75
2022-11-05T01:13:23.159Z,100660.50
2022-11-05T01:15:52.663Z,100660.94
2022-11-05T01:18:24.005Z,100642.25
2022-11-05T01:20:52.789Z,100666.25
2022-11-05T01:23:22.040Z,100626.59
2022-11-05T01:25:51.052Z,100622.66
2022-11-05T01:28:20.333Z,100676.81
2022-11-05T01:30:56.852Z,100604.66
2022-11-05T01:33:28.202Z,100672.88
2022-11-05T01:35:56.989Z,100678.31
2022-11-05T01:38:25.857Z,100616.78
2022-11-05T01:40:54.587Z,100595.25
2022-11-05T01:43:24.755Z,100645.56
2022-11-05T01:45:58.476Z,100680.91
2022-11-05T01:48:33.552Z,100675.00
2022-11-05T01:51:05.969Z,100669.09
2022-11-05T01:53:39.859Z,100663.16
2022-11-05T01:56:13.075Z,100688.81
2022-11-05T01:58:45.937Z,100683.03
2022-11-05T02:01:14.909Z,100637.72
2022-11-05T02:03:46.384Z,100589.56
2022-11-05T02:06:17.617Z,100654.41
2022-11-05T02:08:56.182Z,100688.03
2022-11-05T02:11:24.988Z,100691.84
2022-11-05T02:13:54.090Z,100640.28
2022-11-05T02:16:35.992Z,100397.78
2022-11-05T02:19:29.421Z,100686.81
2022-11-05T02:22:20.538Z,100653.28
2022-11-05T02:25:01.493Z,100620.44
2022-11-05T02:27:57.524Z,100674.16
2022-11-05T02:30:43.582Z,100678.13
2022-11-05T02:33:24.916Z,100679.31
2022-11-05T02:36:07.820Z,100606.06
2022-11-05T02:38:47.972Z,100589.56
2022-11-05T02:41:24.401Z,100683.69
2022-11-05T02:44:06.374Z,100635.75
2022-11-05T02:46:46.277Z,100607.28
2022-11-05T02:49:26.255Z,100649.69
2022-11-05T02:51:59.295Z,100635.56
2022-11-05T02:54:35.361Z,100666.69
2022-11-05T02:57:05.321Z,100389.88
2022-11-05T02:59:34.506Z,100657.06
2022-11-05T03:02:06.784Z,100605.25
2022-11-05T03:04:35.897Z,100679.81
2022-11-05T03:07:23.928Z,100670.47
2022-11-05T03:10:24.191Z,100706.28
2022-11-05T03:13:03.696Z,100596.91
2022-11-05T03:15:48.921Z,100653.97
2022-11-05T03:18:26.667Z,100692.72
2022-11-05T03:21:04.255Z,100696.53
2022-11-05T03:23:40.481Z,100664.69
2022-11-05T03:26:17.672Z,100684.75
2022-11-05T03:28:51.863Z,100642.00
2022-11-05T03:31:22.479Z,100700.50
2022-11-05T03:33:54.809Z,100698.41
2022-11-05T03:36:28.894Z,100668.91
2022-11-05T03:39:02.367Z,100571.00
2022-11-05T03:41:34.299Z,100702.75
2022-11-05T03:44:06.731Z,100640.13
2022-11-05T03:46:39.898Z,100689.16
2022-11-05T03:49:15.799Z,100603.56
2022-11-05T03:51:50.001Z,100558.31
2022-11-05T03:54:20.740Z,100707.63
2022-11-05T03:57:02.243Z,100688.63
2022-11-05T03:59:39.512Z,100663.75
2022-11-05T04:02:08.884Z,100707.00
2022-11-05T04:04:39.764Z,100702.94
2022-11-05T04:07:27.417Z,100643.13
2022-11-05T04:10:14.206Z,100710.63
2022-11-05T04:13:00.383Z,100718.19
2022-11-05T04:15:53.664Z,100715.41
2022-11-05T04:18:24.281Z,100714.22
2022-11-05T04:21:12.725Z,100642.41
2022-11-05T04:24:00.762Z,100711.44
2022-11-05T04:26:29.665Z,100644.66
2022-11-05T04:29:30.575Z,100683.22
2022-11-05T04:31:59.783Z,100459.00
2022-11-05T04:34:28.996Z,100614.63
2022-11-05T04:37:00.459Z,100720.50
2022-11-05T04:39:30.651Z,100605.44
2022-11-05T04:41:59.872Z,100710.63
2022-11-05T04:44:31.248Z,100747.19
2022-11-05T04:47:00.220Z,100691.22
2022-11-05T04:49:29.304Z,100754.09
2022-11-05T04:51:59.850Z,100731.53
2022-11-05T04:54:33.902Z,100710.78
2022-11-05T04:57:15.628Z,100643.88
2022-11-05T04:59:44.836Z,100771.16
2022-11-05T05:02:14.108Z,100755.41
2022-11-05T05:04:43.014Z,100766.56
2022-11-05T05:07:13.369Z,100763.97
2022-11-05T05:09:42.200Z,100768.47
2022-11-05T05:12:11.099Z,100768.03
2022-11-05T05:14:40.584Z,100774.16
2022-11-05T05:17:10.122Z,100774.34
2022-11-05T05:19:52.931Z,100785.44
2022-11-05T05:22:23.865Z,100769.56
2022-11-05T05:24:56.749Z,100771.00
2022-11-05T05:27:26.244Z,100797.50
2022-11-05T05:29:55.247Z,100808.84
2022-11-05T05:32:24.712Z,100803.72
2022-11-05T05:34:53.858Z,100808.09
2022-11-05T05:37:24.475Z,100800.44
2022-11-05T05:39:53.704Z,100752.88
2022-11-05T05:42:23.205Z,100812.41
2022-11-05T05:44:52.195Z,100813.50
2022-11-05T05:47:21.093Z,100799.47
2022-11-05T05:49:50.825Z,100792.41
2022-11-05T05:52:20.283Z,100837.47
2022-11-05T05:54:50.708Z,100825.84
2022-11-05T05:57:22.697Z,100766.97
2022-11-05T05:59:52.118Z,100829.59
2022-11-05T06:02:23.084Z,100805.22
2022-11-05T06:04:52.302Z,100829.94
2022-11-05T06:07:21.398Z,100809.56
2022-11-05T06:09:51.879Z,100792.47
2022-11-05T06:12:20.719Z,100829.03
2022-11-05T06:14:49.930Z,100840.09
2022-11-05T06:17:18.811Z,100842.97
2022-11-05T06:19:48.105Z,100839.53
2022-11-05T06:22:17.402Z,100797.94
2022-11-05T06:24:50.336Z,100838.41
2022-11-05T06:27:21.048Z,100720.81
2022-11-05T06:29:50.337Z,100843.97
2022-11-05T06:32:44.221Z,100675.09
2022-11-05T06:35:16.714Z,100731.91
2022-11-05T06:37:55.112Z,100790.22
2022-11-05T06:40:25.472Z,100858.66
2022-11-05T06:46:08.009Z,100859.84
2022-11-05T06:48:40.080Z,100842.56
2022-11-05T06:51:10.786Z,100866.00
2022-11-05T06:53:40.085Z,100865.66
2022-11-05T06:56:09.900Z,100841.38
2022-11-05T06:58:40.819Z,100838.72
2022-11-05T07:01:14.354Z,100872.69
2022-11-05T07:03:45.235Z,100839.66
2022-11-05T07:06:14.328Z,100864.91
2022-11-05T07:08:43.667Z,100866.94
2022-11-05T07:11:13.449Z,100828.69
2022-11-05T07:13:43.664Z,100836.41
2022-11-05T07:16:14.001Z,100875.97
2022-11-05T07:18:42.990Z,100850.47
2022-11-05T07:21:11.904Z,100867.59
2022-11-05T07:23:41.088Z,100875.03
2022-11-05T07:26:10.094Z,100839.88
2022-11-05T07:28:40.068Z,100816.91
2022-11-05T07:31:10.726Z,100845.09
2022-11-05T07:33:41.532Z,100892.59
2022-11-05T07:36:17.711Z,100813.66
2022-11-05T07:38:50.462Z,100891.22
2022-11-05T07:41:19.952Z,100820.09
2022-11-05T07:44:03.610Z,100579.13
2022-11-05T07:46:37.472Z,100864.88
2022-11-05T07:49:06.957Z,100599.41
2022-11-05T07:51:37.904Z,100891.66
2022-11-05T07:54:07.623Z,100685.56
2022-11-05T07:56:36.491Z,100897.22
2022-11-05T07:59:05.879Z,100850.97
2022-11-05T08:01:36.892Z,100897.03
2022-11-05T08:04:06.222Z,100906.97
2022-11-05T08:06:35.579Z,100840.53
2022-11-05T08:09:05.371Z,100906.63
2022-11-05T08:11:35.953Z,100839.50
2022-11-05T08:14:06.130Z,100905.25
2022-11-05T08:16:39.639Z,100889.31
2022-11-05T08:19:08.737Z,100904.53
2022-11-05T08:21:39.050Z,100908.69
2022-11-05T08:24:17.969Z,100637.31
2022-11-05T08:26:50.146Z,100623.19
2022-11-05T08:29:21.357Z,100920.34
2022-11-05T08:31:52.297Z,100914.66
2022-11-05T08:34:21.702Z,100871.31
2022-11-05T08:36:51.186Z,100921.25
2022-11-05T08:39:20.238Z,100761.19
2022-11-05T08:41:50.692Z,100779.03
2022-11-05T08:44:20.079Z,100954.84
2022-11-05T08:46:49.588Z,100777.72
2022-11-05T08:49:20.154Z,100718.88
2022-11-05T08:51:49.671Z,100852.69
2022-11-05T08:54:19.470Z,100805.44
2022-11-05T08:56:49.167Z,100951.66
2022-11-05T08:59:18.713Z,100957.00
2022-11-05T09:01:50.657Z,100942.13
2022-11-05T09:04:21.707Z,100871.56
2022-11-05T09:06:50.836Z,100946.53
2022-11-05T09:09:21.544Z,100974.88
2022-11-05T09:12:11.049Z,100955.22
2022-11-05T09:14:41.258Z,100687.44
2022-11-05T09:17:17.562Z,100969.56
2022-11-05T09:19:48.608Z,100982.72
2022-11-05T09:22:17.906Z,100887.84
2022-11-05T09:24:47.053Z,100981.31
2022-11-05T09:27:16.215Z,100968.84
2022-11-05T09:29:45.652Z,100918.09
2022-11-05T09:32:18.802Z,100980.97
2022-11-05T09:34:53.409Z,100940.19
2022-11-05T09:37:23.206Z,100980.56
2022-11-05T09:39:52.135Z,100973.88
2022-11-05T09:42:25.071Z,100967.25
2022-11-05T09:44:59.585Z,100922.00
2022-11-05T09:47:34.145Z,100969.50
2022-11-05T09:50:14.270Z,100905.63
2022-11-05T09:52:43.852Z,100959.91
2022-11-05T09:55:22.070Z,100984.31
2022-11-05T09:57:55.989Z,100974.16
2022-11-05T10:00:25.656Z,100962.34
2022-11-05T10:02:57.259Z,100945.94
2022-11-05T10:05:30.144Z,100928.91
2022-11-05T10:08:03.927Z,100981.34
2022-11-05T10:10:41.008Z,100977.91
2022-11-05T10:13:20.729Z,100974.00
2022-11-05T10:15:59.370Z,100985.84
2022-11-05T10:18:32.865Z,100985.69
2022-11-05T10:21:03.587Z,100987.94
2022-11-05T10:23:33.451Z,100992.31
2022-11-05T10:26:12.957Z,100981.59
2022-11-05T10:28:42.064Z,100971.03
2022-11-05T10:31:14.707Z,100993.31
2022-11-05T10:33:46.792Z,100990.34
2022-11-05T10:36:22.526Z,100950.31
2022-11-05T10:38:51.930Z,100960.44
2022-11-05T10:41:36.096Z,100989.13
2022-11-05T10:44:18.933Z,100989.72
2022-11-05T10:46:59.022Z,100988.47
2022-11-05T10:49:44.530Z,100988.31
2022-11-05T10:52:24.128Z,100880.16
2022-11-05T10:55:02.169Z,100976.28
2022-11-05T10:57:34.753Z,100966.56
2022-11-05T11:00:24.660Z,100672.50
2022-11-05T11:02:57.296Z,101002.78
2022-11-05T11:05:32.975Z,100938.53
2022-11-05T11:08:19.593Z,100851.97
2022-11-05T11:10:54.326Z,101000.16
2022-11-05T11:13:27.695Z,101000.91
2022-11-05T11:16:14.843Z,101009.16
2022-11-05T11:18:45.486Z,101007.69
2022-11-05T11:21:16.934Z,100999.88
2022-11-05T11:23:55.874Z,100920.84
2022-11-05T11:26:31.450Z,100999.41
2022-11-05T11:29:03.075Z,100985.19
2022-11-05T11:31:33.921Z,101014.72
2022-11-05T11:34:07.047Z,101016.88
2022-11-05T11:36:41.579Z,100851.19
2022-11-05T11:39:18.648Z,100959.81
2022-11-05T11:41:54.176Z,100960.66
2022-11-05T11:44:27.703Z,101007.44
2022-11-05T11:47:01.193Z,100963.81
2022-11-05T11:49:32.291Z,101010.97
2022-11-05T11:52:04.918Z,101002.19
2022-11-05T11:54:36.185Z,101009.78
2022-11-05T11:57:22.381Z,101000.13
2022-11-05T12:00:08.224Z,100996.53
2022-11-05T12:03:01.815Z,100938.47
2022-11-05T12:05:37.634Z,100976.22
2022-11-05T12:08:21.475Z,100939.88
2022-11-05T12:11:01.167Z,100764.38
2022-11-05T12:13:55.294Z,100960.09
2022-11-05T12:16:49.768Z,100992.03
2022-11-05T12:19:32.322Z,100985.41
2022-11-05T12:22:08.695Z,100989.88
2022-11-05T12:25:17.198Z,100989.03
2022-11-05T12:28:16.724Z,100687.16
2022-11-05T12:30:53.594Z,100911.81
2022-11-05T12:33:37.797Z,100987.97
2022-11-05T12:36:25.584Z,101002.13
2022-11-05T12:39:10.522Z,100871.16
2022-11-05T12:41:50.792Z,100998.41
2022-11-05T12:44:39.837Z,100996.28
2022-11-05T12:47:20.089Z,100945.50
2022-11-05T12:50:01.199Z,100978.59
2022-11-05T12:52:52.511Z,101013.97
2022-11-05T12:55:32.846Z,100982.34
2022-11-05T12:58:12.938Z,101031.13
2022-11-05T13:00:48.308Z,101033.53
2022-11-05T13:03:27.483Z,101004.34
2022-11-05T13:06:05.850Z,101039.28
2022-11-05T13:08:41.048Z,100979.88
2022-11-05T13:11:21.037Z,100952.56
2022-11-05T13:14:06.213Z,101005.88
2022-11-05T13:16:39.654Z,101031.88
2022-11-05T13:19:18.470Z,101018.16
2022-11-05T13:21:53.221Z,101035.75
2022-11-05T13:24:25.725Z,101056.38
2022-11-05T13:26:59.254Z,101025.59
2022-11-05T13:29:34.538Z,101033.06
2022-11-05T13:32:14.936Z,101071.13
2022-11-05T13:34:44.829Z,101030.41
2022-11-05T13:37:35.529Z,101072.09
2022-11-05T13:40:13.854Z,101078.66
2022-11-05T13:43:18.053Z,101080.53
2022-11-05T13:46:06.328Z,101052.59
2022-11-05T13:49:12.912Z,101081.78
2022-11-05T13:51:51.154Z,100901.72
2022-11-05T13:54:56.671Z,101092.78
2022-11-05T13:57:49.140Z,101084.28
2022-11-05T14:00:23.690Z,101081.94
2022-11-05T14:02:56.157Z,101062.91
2022-11-05T14:05:30.718Z,101096.28
2022-11-05T14:08:02.244Z,101055.13
2022-11-05T14:10:44.472Z,101114.06
2022-11-05T14:13:23.972Z,101003.03
2022-11-05T14:15:58.866Z,100823.09
2022-11-05T14:18:43.065Z,101104.28
2022-11-05T14:21:48.417Z,100922.72
2022-11-05T14:24:47.388Z,100968.56
2022-11-05T14:27:44.159Z,101126.34
2022-11-05T14:30:46.125Z,101127.91
2022-11-05T14:33:32.501Z,101136.06
2022-11-05T14:36:38.112Z,101129.69
2022-11-05T14:39:30.007Z,101061.69
2022-11-05T14:42:05.817Z,101142.00
2022-11-05T14:44:37.295Z,101121.47
2022-11-05T14:47:22.806Z,101028.47
2022-11-05T14:49:55.820Z,101138.56
2022-11-05T14:52:26.825Z,101050.06
2022-11-05T14:54:59.168Z,101143.50
2022-11-05T14:58:04.560Z,101151.56
2022-11-05T15:00:50.033Z,101103.59
2022-11-05T15:04:02.719Z,101133.53
2022-11-05T15:06:34.830Z,101150.59
2022-11-05T15:09:28.293Z,101131.38
2022-11-05T15:12:09.826Z,101144.28
2022-11-05T15:14:48.957Z,101133.34
2022-11-05T15:17:23.542Z,101139.41
2022-11-05T15:19:55.127Z,101142.13
2022-11-05T15:22:33.570Z,101135.84
2022-11-05T15:25:06.264Z,101139.41
2022-11-05T15:27:47.209Z,101159.28
2022-11-05T15:30:18.397Z,101146.81
2022-11-05T15:32:47.917Z,101151.94
2022-11-05T15:35:24.969Z,101153.50
2022-11-05T15:38:02.538Z,101153.00
2022-11-05T15:40:36.441Z,101169.63
2022-11-05T15:43:18.243Z,101107.19
2022-11-05T15:46:17.960Z,101151.72
2022-11-05T15:48:49.957Z,101179.22
2022-11-05T15:51:19.182Z,101183.94
2022-11-05T15:56:56.571Z,101187.50
2022-11-05T15:59:27.639Z,101189.94
2022-11-05T16:02:02.069Z,101188.59
2022-11-05T16:04:33.714Z,101131.59
2022-11-05T16:07:09.195Z,101192.16
2022-11-05T16:09:41.261Z,101194.78
2022-11-05T16:12:24.200Z,101196.19
2022-11-05T16:14:59.942Z,101153.78
2022-11-05T16:17:33.648Z,101156.75
2022-11-05T16:20:04.327Z,101113.81
2022-11-05T16:22:48.254Z,101198.94
2022-11-05T16:25:38.412Z,101200.81
2022-11-05T16:28:23.818Z,101095.16
2022-11-05T16:30:57.900Z,101112.91
2022-11-05T16:33:32.350Z,101186.25
2022-11-05T16:36:02.474Z,101207.19
2022-11-05T16:38:32.271Z,101203.59
2022-11-05T16:41:01.840Z,101162.47
2022-11-05T16:43:33.597Z,101202.88
2022-11-05T16:46:03.532Z,101178.31
2022-11-05T16:48:33.170Z,101153.94
2022-11-05T16:51:02.894Z,101206.38
2022-11-05T16:53:32.819Z,101201.91
2022-11-05T16:56:06.705Z,101201.25
2022-11-05T16:58:43.662Z,101198.28
2022-11-05T17:01:19.522Z,100984.69
2022-11-05T17:03:52.033Z,101115.13
2022-11-05T17:06:23.413Z,101203.19
2022-11-05T17:08:52.923Z,100994.81
2022-11-05T17:12:11.539Z,101208.31
2022-11-05T17:14:42.643Z,101219.72
2022-11-05T17:17:14.472Z,101210.31
2022-11-05T17:19:48.477Z,100995.06
2022-11-05T17:22:35.512Z,100872.22
2022-11-05T17:25:05.122Z,100902.63
2022-11-05T17:27:35.956Z,101198.97
2022-11-05T17:30:12.832Z,101069.66
2022-11-05T17:32:44.065Z,101113.53
2022-11-05T17:35:14.467Z,100924.69
2022-11-05T17:37:45.415Z,101030.78
2022-11-05T17:40:24.179Z,101207.22
2022-11-05T17:43:01.661Z,101210.41
2022-11-05T17:45:41.577Z,101159.41
2022-11-05T17:48:11.525Z,101165.78
2022-11-05T17:51:03.884Z,101214.59
2022-11-05T17:53:35.863Z,100949.78
2022-11-05T17:56:40.285Z,101108.38
2022-11-05T17:59:12.605Z,101217.78
2022-11-05T18:01:47.754Z,101157.06
2022-11-05T18:04:19.786Z,101171.59
2022-11-05T18:06:49.162Z,101223.31
2022-11-05T18:09:18.697Z,101207.81
2022-11-05T18:11:48.111Z,101209.09
2022-11-05T18:14:31.959Z,101185.34
2022-11-05T18:17:02.555Z,101232.75
2022-11-05T18:19:53.774Z,101183.78
2022-11-05T18:24:34.679Z,101107.34
2022-11-05T18:26:22.437Z,101251.16
2022-11-05T18:28:51.857Z,101247.97
2022-11-05T18:31:24.851Z,101234.78
2022-11-05T18:33:58.023Z,101253.25
2022-11-05T18:36:29.927Z,101254.47
2022-11-05T18:39:18.455Z,101251.16
2022-11-05T18:41:51.604Z,101248.13
2022-11-05T18:44:25.113Z,101222.00
2022-11-05T18:47:26.830Z,101259.91
2022-11-05T18:49:57.405Z,101194.84
2022-11-05T18:52:28.366Z,101234.41
2022-11-05T18:54:58.546Z,101240.22
2022-11-05T18:57:29.997Z,101254.06
2022-11-05T18:59:59.437Z,101253.69
2022-11-05T19:02:28.871Z,101259.41
2022-11-05T19:07:52.437Z,101265.78
2022-11-05T19:10:21.720Z,101267.38
2022-11-05T19:12:55.817Z,101261.44
2022-11-05T19:15:27.618Z,101269.13
2022-11-05T19:17:58.489Z,101235.63
2022-11-05T19:20:37.602Z,101274.88
2022-11-05T19:23:07.433Z,101270.22
2022-11-05T19:25:38.710Z,101275.38
2022-11-05T19:28:08.470Z,101268.25
2022-11-05T19:30:39.731Z,101202.47
2022-11-05T19:33:09.336Z,101265.78
2022-11-05T19:35:43.089Z,101258.81
2022-11-05T19:38:14.877Z,101152.34
2022-11-05T19:40:44.727Z,101262.41
2022-11-05T19:43:14.633Z,101273.31
2022-11-05T19:45:45.394Z,101217.66
2022-11-05T19:48:19.381Z,101271.66
2022-11-05T19:50:53.939Z,101276.97
2022-11-05T19:57:59.177Z,101164.38
2022-11-05T20:00:37.700Z,100999.41
2022-11-05T20:03:24.536Z,101164.28
2022-11-05T20:06:10.903Z,101000.53
2022-11-05T20:09:06.719Z,101281.28
2022-11-05T20:11:31.450Z,101288.31
2022-11-05T20:14:03.013Z,101284.25
2022-11-05T20:16:38.750Z,101236.13
2022-11-05T20:19:54.660Z,101297.50
2022-11-05T20:22:33.941Z,101122.28
2022-11-05T20:25:03.771Z,101302.22
2022-11-05T20:27:41.022Z,101130.78
2022-11-05T20:30:34.656Z,101006.28
2022-11-05T20:33:10.568Z,101313.47
2022-11-05T20:36:17.828Z,101337.00
2022-11-05T20:38:45.610Z,101298.16
2022-11-05T20:41:22.728Z,101024.38
2022-11-05T20:44:01.657Z,101165.34
2022-11-05T20:46:44.670Z,101209.94
2022-11-05T20:49:24.941Z,101060.47
2022-11-05T20:51:57.598Z,101296.47
2022-11-05T20:54:29.773Z,101174.94
2022-11-05T20:57:01.317Z,101293.69
2022-11-05T20:59:35.961Z,101278.06
2022-11-05T21:02:05.448Z,101276.19
2022-11-05T21:04:35.707Z,101303.88
2022-11-05T21:07:05.640Z,101186.59
2022-11-05T21:09:37.663Z,101028.00
2022-11-05T21:12:14.083Z,101156.72
2022-11-05T21:14:48.024Z,101327.19
2022-11-05T21:17:18.595Z,101325.97
2022-11-05T21:19:53.910Z,101319.34
2022-11-05T21:22:26.347Z,101027.69
2022-11-05T21:25:04.729Z,101328.28
2022-11-05T21:27:53.413Z,101113.28
2022-11-05T21:30:38.231Z,101052.78
2022-11-05T21:33:19.903Z,101022.91
2022-11-05T21:35:50.127Z,101340.06
2022-11-05T21:38:19.969Z,101225.66
2022-11-05T21:40:51.093Z,101319.34
2022-11-05T21:43:20.328Z,101333.97
2022-11-05T21:45:51.838Z,101342.78
2022-11-05T21:48:21.172Z,101346.03
2022-11-05T21:51:09.987Z,101308.88
2022-11-05T21:53:58.177Z,101354.66
2022-11-05T21:56:49.964Z,101350.56
2022-11-05T21:59:45.762Z,101356.66
2022-11-05T22:02:18.199Z,101361.69
2022-11-05T22:04:52.482Z,101359.69
2022-11-05T22:07:25.168Z,101273.31
2022-11-05T22:09:54.982Z,101031.88
2022-11-05T22:12:27.081Z,101322.94
2022-11-05T22:14:57.247Z,101336.84
2022-11-05T22:17:29.207Z,101355.69
2022-11-05T22:19:58.842Z,101348.13
2022-11-05T22:22:30.263Z,101352.91
2022-11-05T22:24:59.661Z,101368.09
2022-11-05T22:27:36.334Z,101341.47
2022-11-05T22:30:11.172Z,101342.63
2022-11-05T22:32:42.159Z,101330.34
2022-11-05T22:35:11.979Z,101285.47
2022-11-05T22:37:41.527Z,101366.59
2022-11-05T22:40:13.615Z,101350.22
2022-11-05T22:42:44.086Z,101356.88
2022-11-05T22:45:13.635Z,101369.47
2022-11-05T22:47:43.101Z,101350.31
2022-11-05T22:50:12.478Z,101330.66
2022-11-05T22:52:42.006Z,101333.88
2022-11-05T22:55:11.585Z,101301.97
2022-11-05T22:57:40.673Z,101346.03
2022-11-05T23:00:17.209Z,101283.22
2022-11-05T23:02:46.648Z,101359.97
2022-11-05T23:05:16.153Z,101286.09
2022-11-05T23:08:04.002Z,101356.38
2022-11-05T23:10:51.390Z,101354.47
2022-11-05T23:13:22.216Z,101354.41
2022-11-05T23:16:12.804Z,101265.41
2022-11-05T23:19:04.781Z,101319.84
2022-11-05T23:21:51.257Z,101361.78
2022-11-05T23:24:21.437Z,101358.88
2022-11-05T23:26:54.217Z,101358.03
2022-11-05T23:29:26.070Z,101356.06
2022-11-05T23:32:14.797Z,101363.25
2022-11-05T23:34:45.504Z,101349.78
2022-11-05T23:37:32.881Z,101365.25
2022-11-05T23:40:02.334Z,101349.25
2022-11-05T23:42:51.288Z,101368.44
2022-11-05T23:45:38.289Z,101302.53
2022-11-05T23:48:22.018Z,101377.56
2022-11-05T23:50:55.503Z,101318.41
2022-11-05T23:53:25.048Z,101369.75
2022-11-05T23:55:54.097Z,101379.38
2022-11-05T23:58:23.039Z,101355.38
